createdAt,value
2022-09-01T00:01:47.340Z,18.74
2022-09-01T00:04:27.545Z,18.81
2022-09-01T00:06:55.288Z,18.59
2022-09-01T00:09:23.374Z,18.74
2022-09-01T00:11:52.655Z,18.83
2022-09-01T00:14:30.110Z,18.74
2022-09-01T00:17:08.269Z,18.76
2022-09-01T00:19:48.223Z,18.57
2022-09-01T00:22:15.089Z,18.76
2022-09-01T00:24:41.804Z,18.70
2022-09-01T00:27:08.392Z,18.69
2022-09-01T00:29:36.118Z,18.69
2022-09-01T00:32:03.345Z,18.64
2022-09-01T00:34:29.945Z,18.50
2022-09-01T00:37:12.097Z,18.54
2022-09-01T00:39:48.690Z,18.57
2022-09-01T00:42:15.606Z,18.62
2022-09-01T00:44:42.119Z,18.62
2022-09-01T00:47:11.914Z,18.62
2022-09-01T00:49:42.131Z,18.65
2022-09-01T00:52:27.454Z,18.57
2022-09-01T00:54:59.367Z,18.54
2022-09-01T00:57:27.062Z,18.54
2022-09-01T01:00:01.162Z,18.52
2022-09-01T01:02:34.176Z,18.46
2022-09-01T01:05:00.894Z,18.32
2022-09-01T01:07:28.675Z,18.40
2022-09-01T01:09:55.416Z,18.34
2022-09-01T01:12:22.155Z,18.31
2022-09-01T01:14:59.855Z,18.29
2022-09-01T01:17:28.417Z,18.15
2022-09-01T01:20:14.822Z,18.19
2022-09-01T01:22:59.838Z,18.06
2022-09-01T01:28:32.851Z,18.06
2022-09-01T01:31:02.139Z,18.06
2022-09-01T01:33:32.051Z,18.03
2022-09-01T01:35:59.887Z,18.02
2022-09-01T01:38:30.668Z,17.85
2022-09-01T01:40:57.615Z,17.88
2022-09-01T01:43:24.715Z,17.90
2022-09-01T01:45:53.920Z,17.86
2022-09-01T01:48:27.189Z,17.70
2022-09-01T01:50:58.233Z,17.75
2022-09-01T01:53:55.213Z,17.80
2022-09-01T01:56:31.456Z,17.59
2022-09-01T01:59:04.637Z,17.48
2022-09-01T02:02:02.740Z,17.42
2022-09-01T02:04:42.853Z,17.53
2022-09-01T02:07:12.048Z,17.42
2022-09-01T02:09:50.989Z,17.24
2022-09-01T02:12:19.590Z,17.42
2022-09-01T02:14:50.320Z,17.49
2022-09-01T02:17:16.947Z,17.28
2022-09-01T02:19:43.506Z,17.47
2022-09-01T02:22:11.399Z,17.40
2022-09-01T02:24:38.441Z,17.46
2022-09-01T02:27:05.643Z,17.30
2022-09-01T02:29:33.285Z,17.23
2022-09-01T02:32:15.573Z,17.15
2022-09-01T02:34:42.455Z,17.16
2022-09-01T02:37:16.391Z,16.97
2022-09-01T02:39:43.397Z,17.08
2022-09-01T02:42:16.199Z,17.09
2022-09-01T02:44:43.544Z,17.12
2022-09-01T02:47:25.921Z,17.10
2022-09-01T02:49:53.623Z,17.06
2022-09-01T02:52:26.619Z,17.13
2022-09-01T02:54:55.492Z,16.95
2022-09-01T02:57:22.983Z,17.11
2022-09-01T03:00:08.743Z,16.97
2022-09-01T03:02:36.813Z,17.01
2022-09-01T03:05:03.895Z,17.01
2022-09-01T03:07:31.187Z,16.92
2022-09-01T03:09:57.864Z,16.92
2022-09-01T03:12:24.535Z,16.78
2022-09-01T03:15:13.311Z,16.70
2022-09-01T03:17:49.722Z,16.73
2022-09-01T03:20:17.164Z,16.54
2022-09-01T03:22:44.435Z,16.71
2022-09-01T03:25:11.040Z,16.73
2022-09-01T03:27:49.844Z,16.79
2022-09-01T03:30:16.615Z,16.77
2022-09-01T03:32:45.130Z,16.70
2022-09-01T03:35:12.874Z,16.73
2022-09-01T03:37:39.757Z,16.70
2022-09-01T03:40:09.093Z,16.61
2022-09-01T03:42:36.411Z,16.56
2022-09-01T03:45:16.157Z,16.37
2022-09-01T03:47:43.644Z,16.40
2022-09-01T03:50:20.435Z,16.35
2022-09-01T03:52:49.317Z,16.32
2022-09-01T03:55:23.361Z,16.15
2022-09-01T03:57:51.521Z,16.09
2022-09-01T04:03:39.795Z,15.79
2022-09-01T04:06:10.122Z,15.80
2022-09-01T04:08:37.137Z,15.68
2022-09-01T04:11:11.240Z,15.69
2022-09-01T04:14:21.208Z,15.61
2022-09-01T04:20:39.864Z,15.78
2022-09-01T04:26:20.459Z,15.66
2022-09-01T04:32:47.005Z,15.52
2022-09-01T04:35:17.198Z,15.51
2022-09-01T04:37:43.966Z,15.56
2022-09-01T04:40:10.941Z,15.62
2022-09-01T04:42:37.528Z,15.42
2022-09-01T04:45:10.824Z,15.47
2022-09-01T04:47:42.370Z,15.60
2022-09-01T04:50:17.743Z,15.72
2022-09-01T04:52:46.279Z,15.58
2022-09-01T04:55:17.526Z,15.19
2022-09-01T04:57:49.550Z,15.32
2022-09-01T05:00:23.642Z,15.18
2022-09-01T05:02:55.799Z,15.16
2022-09-01T05:05:23.383Z,15.20
2022-09-01T05:07:53.189Z,15.16
2022-09-01T05:10:21.424Z,15.15
2022-09-01T05:12:49.043Z,15.23
2022-09-01T05:15:17.310Z,15.23
2022-09-01T05:17:44.243Z,15.07
2022-09-01T05:20:11.872Z,15.11
2022-09-01T05:22:41.021Z,15.15
2022-09-01T05:25:13.279Z,15.11
2022-09-01T05:27:41.784Z,15.16
2022-09-01T05:30:08.950Z,15.09
2022-09-01T05:32:37.332Z,15.17
2022-09-01T05:35:08.363Z,15.11
2022-09-01T05:37:38.479Z,15.09
2022-09-01T05:40:07.608Z,15.23
2022-09-01T05:42:34.384Z,15.29
2022-09-01T05:45:02.200Z,15.28
2022-09-01T05:47:29.023Z,15.41
2022-09-01T05:49:56.170Z,15.59
2022-09-01T05:52:25.270Z,15.86
2022-09-01T05:54:52.454Z,16.06
2022-09-01T05:57:33.718Z,16.21
2022-09-01T06:00:02.389Z,16.46
2022-09-01T06:02:29.555Z,16.69
2022-09-01T06:04:57.428Z,16.67
2022-09-01T06:07:25.564Z,16.91
2022-09-01T06:09:54.649Z,16.91
2022-09-01T06:12:24.088Z,17.02
2022-09-01T06:14:55.595Z,17.09
2022-09-01T06:17:25.997Z,17.53
2022-09-01T06:19:55.669Z,17.72
2022-09-01T06:22:24.007Z,17.89
2022-09-01T06:24:57.897Z,18.08
2022-09-01T06:27:27.989Z,18.20
2022-09-01T06:29:55.344Z,18.10
2022-09-01T06:32:22.313Z,18.49
2022-09-01T06:34:51.733Z,18.53
2022-09-01T06:37:23.056Z,18.50
2022-09-01T06:39:50.671Z,18.43
2022-09-01T06:42:17.634Z,18.75
2022-09-01T06:44:44.246Z,18.86
2022-09-01T06:47:10.825Z,18.88
2022-09-01T06:49:41.128Z,18.77
2022-09-01T06:52:07.843Z,19.24
2022-09-01T06:54:35.560Z,19.03
2022-09-01T06:58:03.388Z,19.33
2022-09-01T07:02:39.746Z,19.60
2022-09-01T07:05:07.965Z,19.55
2022-09-01T07:10:23.397Z,19.49
2022-09-01T07:13:11.619Z,20.06
2022-09-01T07:18:31.029Z,19.97
2022-09-01T07:21:09.396Z,19.96
2022-09-01T07:24:08.073Z,19.98
2022-09-01T07:26:35.026Z,20.40
2022-09-01T07:29:06.067Z,20.62
2022-09-01T07:32:43.681Z,20.76
2022-09-01T07:34:38.791Z,20.70
2022-09-01T07:39:53.216Z,21.29
2022-09-01T07:45:30.601Z,21.05
2022-09-01T07:48:03.733Z,21.29
2022-09-01T07:50:41.684Z,21.02
2022-09-01T07:53:23.662Z,21.24
2022-09-01T07:55:52.269Z,21.05
2022-09-01T07:58:26.081Z,21.33
2022-09-01T08:00:53.440Z,21.53
2022-09-01T08:03:23.772Z,21.43
2022-09-01T08:05:57.986Z,21.79
2022-09-01T08:08:28.718Z,21.56
2022-09-01T08:11:04.285Z,21.55
2022-09-01T08:13:33.718Z,21.85
2022-09-01T08:16:08.429Z,21.87
2022-09-01T08:18:50.568Z,22.17
2022-09-01T08:21:18.547Z,22.11
2022-09-01T08:23:45.511Z,22.38
2022-09-01T08:26:15.573Z,22.24
2022-09-01T08:28:46.171Z,22.42
2022-09-01T08:31:17.656Z,22.43
2022-09-01T08:33:49.179Z,22.65
2022-09-01T08:36:20.149Z,22.41
2022-09-01T08:38:50.296Z,22.24
2022-09-01T08:41:39.591Z,22.66
2022-09-01T08:44:33.469Z,22.64
2022-09-01T08:47:05.074Z,22.68
2022-09-01T08:49:42.791Z,22.96
2022-09-01T08:52:21.229Z,22.94
2022-09-01T08:54:55.358Z,23.02
2022-09-01T08:57:25.462Z,22.98
2022-09-01T08:59:52.796Z,23.00
2022-09-01T09:02:40.278Z,23.42
2022-09-01T09:05:22.264Z,23.72
2022-09-01T09:08:20.196Z,23.17
2022-09-01T09:10:52.979Z,23.31
2022-09-01T09:13:40.293Z,22.77
2022-09-01T09:16:19.444Z,23.24
2022-09-01T09:18:56.495Z,23.02
2022-09-01T09:21:47.515Z,23.13
2022-09-01T09:24:47.667Z,23.32
2022-09-01T09:27:34.008Z,23.58
2022-09-01T09:30:11.761Z,23.61
2022-09-01T09:33:46.639Z,23.80
2022-09-01T09:35:47.429Z,23.46
2022-09-01T09:38:38.269Z,23.53
2022-09-01T09:41:26.951Z,23.81
2022-09-01T09:44:03.216Z,23.95
2022-09-01T09:46:33.155Z,24.04
2022-09-01T09:49:35.133Z,24.22
2022-09-01T09:52:16.411Z,23.85
2022-09-01T09:55:07.695Z,24.24
2022-09-01T09:57:41.352Z,24.00
2022-09-01T10:00:28.122Z,24.28
2022-09-01T10:03:01.543Z,24.41
2022-09-01T10:05:53.747Z,24.63
2022-09-01T10:08:48.283Z,24.17
2022-09-01T10:11:56.235Z,24.74
2022-09-01T10:14:53.868Z,24.62
2022-09-01T10:17:26.116Z,24.90
2022-09-01T10:20:05.320Z,24.56
2022-09-01T10:22:40.472Z,23.95
2022-09-01T10:25:10.413Z,23.80
2022-09-01T10:27:41.016Z,23.46
2022-09-01T10:30:19.334Z,23.94
2022-09-01T10:33:03.392Z,24.31
2022-09-01T10:35:41.690Z,24.75
2022-09-01T10:38:20.908Z,24.92
2022-09-01T10:41:07.343Z,24.36
2022-09-01T10:43:48.967Z,24.60
2022-09-01T10:46:24.371Z,24.65
2022-09-01T10:49:02.044Z,25.23
2022-09-01T10:51:36.321Z,24.84
2022-09-01T10:54:05.898Z,24.47
2022-09-01T10:56:51.268Z,24.47
2022-09-01T10:59:38.588Z,24.50
2022-09-01T11:02:29.553Z,24.82
2022-09-01T11:04:58.728Z,24.89
2022-09-01T11:10:56.677Z,24.96
2022-09-01T11:13:46.396Z,24.46
2022-09-01T11:16:47.806Z,24.42
2022-09-01T11:19:44.515Z,24.55
2022-09-01T11:22:14.464Z,24.58
2022-09-01T11:24:57.924Z,25.18
2022-09-01T11:27:54.478Z,25.25
2022-09-01T11:30:32.543Z,25.71
2022-09-01T11:33:29.070Z,25.27
2022-09-01T11:36:02.492Z,24.98
2022-09-01T11:38:38.649Z,25.17
2022-09-01T11:41:05.220Z,25.52
2022-09-01T11:43:34.461Z,25.62
2022-09-01T11:46:36.137Z,25.01
2022-09-01T11:49:15.822Z,25.38
2022-09-01T11:51:47.588Z,25.72
2022-09-01T11:54:18.283Z,25.90
2022-09-01T11:56:51.496Z,25.39
2022-09-01T12:02:36.591Z,25.24
2022-09-01T12:05:32.970Z,25.90
2022-09-01T12:08:03.165Z,26.26
2022-09-01T12:10:33.694Z,26.40
2022-09-01T12:13:24.386Z,26.31
2022-09-01T12:16:17.414Z,26.35
2022-09-01T12:18:54.223Z,26.19
2022-09-01T12:21:46.374Z,25.63
2022-09-01T12:24:23.774Z,25.71
2022-09-01T12:26:55.846Z,25.85
2022-09-01T12:29:23.249Z,25.91
2022-09-01T12:31:52.695Z,26.25
2022-09-01T12:34:47.564Z,26.29
2022-09-01T12:37:26.608Z,26.00
2022-09-01T12:39:56.338Z,25.92
2022-09-01T12:42:41.056Z,26.05
2022-09-01T12:45:14.137Z,26.05
2022-09-01T12:47:53.125Z,26.01
2022-09-01T12:50:21.802Z,26.45
2022-09-01T12:53:05.037Z,26.36
2022-09-01T12:55:53.825Z,26.32
2022-09-01T12:58:27.147Z,26.49
2022-09-01T13:01:57.399Z,26.53
2022-09-01T13:05:21.147Z,25.99
2022-09-01T13:08:09.169Z,26.05
2022-09-01T13:11:03.571Z,25.86
2022-09-01T13:13:36.525Z,25.43
2022-09-01T13:16:15.301Z,25.61
2022-09-01T13:21:32.161Z,25.58
2022-09-01T13:23:58.912Z,26.00
2022-09-01T13:26:31.471Z,26.04
2022-09-01T13:28:59.758Z,25.85
2022-09-01T13:31:32.555Z,26.08
2022-09-01T13:34:22.502Z,26.11
2022-09-01T13:36:51.142Z,26.33
2022-09-01T13:39:23.087Z,25.72
2022-09-01T13:41:50.121Z,25.77
2022-09-01T13:44:22.817Z,25.72
2022-09-01T13:46:59.760Z,25.84
2022-09-01T13:50:04.556Z,25.56
2022-09-01T13:52:13.652Z,25.60
2022-09-01T13:54:40.527Z,26.11
2022-09-01T13:57:07.079Z,26.12
2022-09-01T13:59:33.699Z,25.87
2022-09-01T14:02:03.515Z,25.74
2022-09-01T14:04:52.610Z,25.84
2022-09-01T14:07:27.889Z,26.17
2022-09-01T14:11:09.046Z,26.35
2022-09-01T14:16:57.580Z,25.93
2022-09-01T14:19:27.975Z,26.35
2022-09-01T14:21:54.734Z,26.58
2022-09-01T14:24:24.959Z,26.75
2022-09-01T14:27:00.942Z,26.96
2022-09-01T14:29:27.666Z,26.67
2022-09-01T14:31:57.065Z,26.57
2022-09-01T14:34:31.225Z,26.62
2022-09-01T14:36:58.161Z,26.54
2022-09-01T14:39:30.986Z,26.87
2022-09-01T14:41:57.622Z,27.13
2022-09-01T14:44:24.338Z,26.72
2022-09-01T14:46:51.448Z,26.23
2022-09-01T14:49:22.613Z,26.00
2022-09-01T14:54:40.782Z,25.91
2022-09-01T14:59:54.451Z,25.53
2022-09-01T15:02:26.882Z,25.09
2022-09-01T15:05:00.699Z,25.12
2022-09-01T15:08:32.435Z,25.51
2022-09-01T15:13:57.701Z,25.21
2022-09-01T15:16:26.015Z,25.31
2022-09-01T15:18:55.328Z,25.21
2022-09-01T15:21:26.978Z,25.21
2022-09-01T15:24:50.712Z,25.18
2022-09-01T15:27:15.631Z,25.08
2022-09-01T15:29:48.007Z,25.00
2022-09-01T15:32:27.536Z,24.98
2022-09-01T15:34:57.558Z,25.05
2022-09-01T15:37:24.249Z,25.15
2022-09-01T15:39:50.854Z,25.61
2022-09-01T15:42:18.487Z,25.76
2022-09-01T15:44:45.265Z,25.78
2022-09-01T15:47:11.879Z,25.75
2022-09-01T15:49:41.818Z,25.81
2022-09-01T15:52:08.429Z,25.99
2022-09-01T15:55:43.353Z,26.09
2022-09-01T15:59:02.533Z,25.87
2022-09-01T16:02:04.027Z,25.84
2022-09-01T16:08:30.347Z,25.81
2022-09-01T16:11:23.697Z,25.62
2022-09-01T16:13:53.614Z,25.59
2022-09-01T16:16:26.505Z,25.54
2022-09-01T16:18:58.925Z,25.36
2022-09-01T16:21:37.447Z,25.36
2022-09-01T16:24:08.526Z,25.45
2022-09-01T16:26:36.806Z,25.33
2022-09-01T16:29:12.489Z,25.24
2022-09-01T16:31:39.133Z,25.19
2022-09-01T16:34:18.209Z,25.12
2022-09-01T16:36:59.999Z,25.25
2022-09-01T16:39:49.665Z,25.22
2022-09-01T16:42:28.180Z,25.13
2022-09-01T16:45:02.327Z,25.00
2022-09-01T16:47:44.299Z,25.06
2022-09-01T16:50:37.564Z,25.07
2022-09-01T16:53:18.880Z,24.99
2022-09-01T16:56:13.095Z,25.04
2022-09-01T16:58:52.240Z,24.88
2022-09-01T17:01:33.828Z,24.75
2022-09-01T17:04:21.823Z,24.62
2022-09-01T17:07:15.025Z,24.78
2022-09-01T17:10:30.585Z,24.61
2022-09-01T17:12:57.884Z,24.64
2022-09-01T17:15:46.787Z,24.62
2022-09-01T17:18:34.548Z,24.60
2022-09-01T17:21:07.699Z,24.57
2022-09-01T17:23:48.373Z,24.49
2022-09-01T17:26:26.284Z,24.39
2022-09-01T17:29:15.475Z,24.49
2022-09-01T17:32:02.821Z,24.46
2022-09-01T17:35:00.525Z,24.22
2022-09-01T17:37:58.213Z,24.26
2022-09-01T17:40:31.136Z,24.25
2022-09-01T17:43:12.292Z,24.17
2022-09-01T17:45:51.526Z,24.17
2022-09-01T17:48:20.809Z,24.19
2022-09-01T17:51:30.871Z,24.06
2022-09-01T17:53:57.412Z,24.04
2022-09-01T17:56:38.116Z,24.05
2022-09-01T17:59:23.163Z,24.03
2022-09-01T18:01:56.357Z,23.93
2022-09-01T18:05:00.901Z,23.82
2022-09-01T18:07:37.890Z,23.80
2022-09-01T18:10:07.161Z,23.56
2022-09-01T18:12:39.211Z,23.67
2022-09-01T18:15:20.474Z,23.66
2022-09-01T18:18:19.723Z,23.68
2022-09-01T18:20:48.810Z,23.62
2022-09-01T18:23:19.379Z,23.56
2022-09-01T18:25:49.793Z,23.55
2022-09-01T18:28:16.702Z,23.44
2022-09-01T18:31:01.443Z,23.47
2022-09-01T18:33:56.052Z,23.41
2022-09-01T18:36:43.930Z,23.30
2022-09-01T18:39:22.750Z,23.31
2022-09-01T18:41:49.410Z,23.14
2022-09-01T18:44:49.192Z,23.07
2022-09-01T18:47:40.070Z,23.05
2022-09-01T18:50:18.793Z,23.07
2022-09-01T18:53:17.782Z,22.91
2022-09-01T18:56:00.193Z,22.79
2022-09-01T18:58:35.890Z,22.55
2022-09-01T19:01:12.867Z,22.60
2022-09-01T19:03:51.221Z,22.66
2022-09-01T19:06:27.089Z,22.58
2022-09-01T19:08:59.681Z,22.57
2022-09-01T19:11:59.950Z,22.47
2022-09-01T19:14:49.146Z,22.45
2022-09-01T19:17:37.531Z,22.37
2022-09-01T19:20:36.636Z,22.34
2022-09-01T19:23:51.692Z,22.16
2022-09-01T19:26:22.722Z,22.03
2022-09-01T19:28:57.729Z,21.95
2022-09-01T19:31:24.309Z,21.80
2022-09-01T19:34:16.733Z,21.75
2022-09-01T19:36:45.630Z,21.74
2022-09-01T19:39:22.048Z,21.67
2022-09-01T19:42:06.948Z,21.71
2022-09-01T19:44:44.573Z,21.79
2022-09-01T19:47:42.556Z,21.59
2022-09-01T19:50:25.793Z,21.61
2022-09-01T19:53:02.687Z,21.67
2022-09-01T19:55:59.865Z,21.43
2022-09-01T19:58:45.596Z,21.08
2022-09-01T20:01:17.089Z,21.10
2022-09-01T20:03:50.634Z,21.05
2022-09-01T20:06:36.909Z,21.14
2022-09-01T20:09:32.291Z,21.04
2022-09-01T20:12:39.495Z,20.85
2022-09-01T20:15:26.484Z,20.91
2022-09-01T20:18:06.866Z,20.73
2022-09-01T20:20:45.476Z,20.69
2022-09-01T20:24:00.058Z,20.66
2022-09-01T20:27:15.122Z,20.47
2022-09-01T20:30:09.457Z,20.47
2022-09-01T20:33:04.847Z,20.29
2022-09-01T20:35:50.060Z,20.35
2022-09-01T20:39:01.547Z,20.32
2022-09-01T20:41:45.630Z,20.28
2022-09-01T20:44:27.026Z,20.22
2022-09-01T20:46:57.543Z,20.03
2022-09-01T20:49:24.271Z,20.02
2022-09-01T20:51:57.903Z,20.04
2022-09-01T20:55:02.814Z,19.98
2022-09-01T20:57:37.115Z,19.84
2022-09-01T21:00:10.081Z,19.72
2022-09-01T21:02:49.059Z,19.60
2022-09-01T21:05:29.055Z,19.66
2022-09-01T21:08:16.695Z,19.61
2022-09-01T21:11:02.011Z,19.65
2022-09-01T21:13:52.273Z,19.55
2022-09-01T21:16:57.919Z,19.56
2022-09-01T21:19:47.202Z,19.33
2022-09-01T21:22:19.695Z,19.37
2022-09-01T21:24:48.499Z,19.32
2022-09-01T21:27:20.786Z,19.35
2022-09-01T21:30:08.432Z,19.36
2022-09-01T21:32:36.575Z,19.36
2022-09-01T21:35:05.219Z,19.24
2022-09-01T21:37:31.732Z,19.25
2022-09-01T21:39:58.277Z,19.22
2022-09-01T21:42:49.964Z,19.25
2022-09-01T21:45:18.060Z,19.24
2022-09-01T21:47:46.028Z,19.25
2022-09-01T21:50:14.146Z,19.25
2022-09-01T21:52:40.843Z,19.09
2022-09-01T21:55:08.614Z,19.09
2022-09-01T21:57:36.567Z,19.13
2022-09-01T22:00:08.547Z,19.08
2022-09-01T22:02:35.952Z,19.16
2022-09-01T22:05:05.934Z,19.16
2022-09-01T22:07:33.674Z,19.01
2022-09-01T22:10:00.354Z,19.07
2022-09-01T22:12:29.210Z,19.07
2022-09-01T22:14:58.925Z,19.13
2022-09-01T22:17:25.505Z,19.08
2022-09-01T22:19:53.126Z,19.12
2022-09-01T22:22:22.701Z,19.12
2022-09-01T22:24:49.174Z,18.99
2022-09-01T22:27:15.802Z,18.97
2022-09-01T22:29:45.556Z,18.94
2022-09-01T22:32:12.149Z,18.98
2022-09-01T22:34:39.229Z,19.02
2022-09-01T22:37:10.417Z,19.08
2022-09-01T22:39:37.298Z,19.04
2022-09-01T22:42:04.113Z,19.03
2022-09-01T22:44:33.668Z,18.91
2022-09-01T22:47:00.210Z,18.97
2022-09-01T22:49:27.199Z,18.97
2022-09-01T22:51:53.858Z,18.91
2022-09-01T22:54:20.731Z,18.84
2022-09-01T22:56:49.825Z,18.92
2022-09-01T22:59:16.412Z,18.88
2022-09-01T23:01:45.786Z,18.77
2022-09-01T23:04:14.514Z,18.85
2022-09-01T23:06:43.917Z,18.87
2022-09-01T23:09:11.101Z,18.88
2022-09-01T23:11:37.794Z,18.82
2022-09-01T23:14:05.484Z,18.83
2022-09-01T23:16:33.318Z,18.82
2022-09-01T23:19:00.633Z,18.79
2022-09-01T23:21:30.697Z,18.61
2022-09-01T23:23:58.882Z,18.75
2022-09-01T23:26:26.970Z,18.75
2022-09-01T23:28:53.538Z,18.70
2022-09-01T23:31:24.629Z,18.61
2022-09-01T23:33:51.661Z,18.63
2022-09-01T23:36:20.576Z,18.66
2022-09-01T23:38:48.059Z,18.65
2022-09-01T23:41:31.099Z,18.69
2022-09-01T23:44:01.389Z,18.63
2022-09-01T23:46:31.215Z,18.62
2022-09-01T23:48:57.843Z,18.60
2022-09-01T23:51:25.397Z,18.55
2022-09-01T23:53:52.799Z,18.54
2022-09-01T23:56:25.000Z,18.53
2022-09-01T23:58:52.296Z,18.36
